Terminal Aerodrome Forecast
Issued by NWS

Home | Current Version | Previous Version | Text Only | Print | Product List | Glossary On
Versions: 1 2 3 4 5 6 7 8 9 10 11 12 13 14 15 16 17
477
FTUS41 KPBZ 011731
TAFMGW
TAF
KMGW 011731Z 0118/0218 21013G21KT P6SM OVC040
     FM012200 22015G33KT 5SM -SHRA VCTS OVC030CB
     FM020100 26016G35KT P6SM VCSH BKN030
     FM021200 27013G28KT P6SM BKN025
     FM021600 28011G20KT P6SM BKN040=

USA.gov is the U.S. government's official web portal to all federal, state and local government web resources and services.